Time;durP1;ratioP1;P1;durP2;ratioP2;P2;SDS_P1;SDS_P2;PMS_P1;PMS_P2;Temp;Humidity;BMP_temperature;BMP_pressure;BME280_temperature;BME280_humidity;BME280_pressure;Samples;Min_cycle;Max_cycle;Signal;HPM_P1;HPM_P2
2022/05/07 00:00:53;;;;;;;5.30;4.80;;;;;;;;;;5030134;28;20455;-92
2022/05/07 00:03:20;;;;;;;4.83;4.30;;;;;;;;;;5034667;28;20435;-91
2022/05/07 00:05:47;;;;;;;5.50;4.73;;;;;;;;;;5027103;28;20443;-91
2022/05/07 00:08:14;;;;;;;6.97;4.97;;;;;;;;;;5033739;28;20442;-90
2022/05/07 00:10:42;;;;;;;5.80;4.60;;;;;;;;;;5034039;28;20436;-88
2022/05/07 00:13:10;;;;;;;7.43;5.17;;;7.70;99.90;;;;;;5034608;28;20455;-91
2022/05/07 00:15:37;;;;;;;5.37;4.47;;;;;;;;;;5034000;28;20447;-91
2022/05/07 00:18:05;;;;;;;5.30;4.80;;;;;;;;;;5034007;28;20483;-92
2022/05/07 00:20:33;;;;;;;7.13;5.23;;;7.60;99.90;;;;;;5033848;28;20530;-90
2022/05/07 00:23:03;;;;;;;6.77;4.80;;;7.10;99.90;;;;;;5033312;28;20452;-92
2022/05/07 00:25:32;;;;;;;6.17;4.50;;;;;;;;;;5031073;28;20442;-91
2022/05/07 00:27:59;;;;;;;4.70;4.30;;;;;;;;;;5034030;28;20771;-91
2022/05/07 00:30:27;;;;;;;5.40;4.60;;;7.50;99.90;;;;;;5029144;28;20439;-90
2022/05/07 00:32:54;;;;;;;5.30;4.80;;;;;;;;;;5031719;28;20459;-92
2022/05/07 00:35:21;;;;;;;4.90;4.50;;;;;;;;;;5029970;28;20474;-90
2022/05/07 00:37:48;;;;;;;4.90;4.40;;;;;;;;;;5028851;28;20487;-89
2022/05/07 00:40:16;;;;;;;5.87;4.70;;;;;;;;;;5034167;28;20967;-91
2022/05/07 00:42:43;;;;;;;5.93;4.17;;;;;;;;;;5034145;28;20458;-90
2022/05/07 00:45:10;;;;;;;7.70;4.53;;;;;;;;;;5034139;28;20838;-90
2022/05/07 00:47:39;;;;;;;5.97;3.90;;;7.40;99.90;;;;;;5030084;28;20839;-90
2022/05/07 00:52:52;;;;;;;8.17;4.97;;;;;;;;;;5033300;28;20528;-90
2022/05/07 00:55:19;;;;;;;5.80;4.97;;;;;;;;;;5034008;28;20471;-92
2022/05/07 00:57:46;;;;;;;5.30;4.60;;;;;;;;;;5034532;28;20483;-91
2022/05/07 01:00:13;;;;;;;7.03;4.70;;;7.40;99.90;;;;;;5026369;28;20447;-90
2022/05/07 01:02:42;;;;;;;6.93;5.40;;;7.10;99.90;;;;;;5034309;28;20447;-91
2022/05/07 01:05:10;;;;;;;6.20;4.77;;;7.20;99.90;;;;;;5030735;28;20432;-90
2022/05/07 01:07:38;;;;;;;5.67;4.83;;;;;;;;;;5030423;28;20451;-90
2022/05/07 01:10:06;;;;;;;5.43;4.83;;;7.10;99.90;;;;;;5033852;28;20463;-90
2022/05/07 01:12:35;;;;;;;5.23;4.70;;;;;;;;;;5030476;28;20483;-91
2022/05/07 01:15:02;;;;;;;5.63;4.60;;;;;;;;;;5029325;28;20473;-90
2022/05/07 01:17:32;;;;;;;5.20;4.70;;;7.00;99.90;;;;;;5027071;28;20553;-90
2022/05/07 01:20:01;;;;;;;5.60;4.43;;;7.10;99.90;;;;;;5033671;28;20435;-90
2022/05/07 01:22:31;;;;;;;4.83;4.17;;;7.00;99.90;;;;;;5033936;28;20447;-91
2022/05/07 01:24:58;;;;;;;7.60;5.10;;;;;;;;;;5035346;28;20459;-90
2022/05/07 01:27:25;;;;;;;6.03;4.90;;;;;;;;;;5035470;28;20452;-90
2022/05/07 01:29:52;;;;;;;4.87;4.30;;;;;;;;;;5036010;28;20451;-90
2022/05/07 01:32:19;;;;;;;6.90;4.30;;;;;;;;;;5034172;28;20428;-90
2022/05/07 01:34:47;;;;;;;5.70;5.20;;;6.80;99.90;;;;;;5032085;28;20454;-90
2022/05/07 01:37:14;;;;;;;5.00;4.57;;;;;;;;;;5036185;28;20490;-89
2022/05/07 01:39:42;;;;;;;5.20;4.70;;;6.80;99.90;;;;;;5032238;28;20431;-92
2022/05/07 01:42:10;;;;;;;6.90;4.93;;;;;;;;;;5034834;28;20812;-92
2022/05/07 01:44:37;;;;;;;4.87;4.37;;;;;;;;;;5033886;28;20915;-92
2022/05/07 01:49:49;;;;;;;5.43;4.93;;;;;;;;;;5037318;28;20477;-91
2022/05/07 01:52:17;;;;;;;4.63;4.10;;;;;;;;;;5036346;28;20500;-90
2022/05/07 01:54:45;;;;;;;5.93;5.27;;;6.80;99.90;;;;;;5032891;28;20459;-91
2022/05/07 01:57:12;;;;;;;8.00;5.17;;;;;;;;;;5033693;28;21002;-90
2022/05/07 01:59:40;;;;;;;5.17;4.67;;;;;;;;;;5036373;28;20443;-90
2022/05/07 02:02:07;;;;;;;7.27;4.90;;;;;;;;;;5036959;28;20444;-91
2022/05/07 02:04:34;;;;;;;8.10;5.00;;;;;;;;;;5037206;28;20458;-91
2022/05/07 02:07:02;;;;;;;5.23;4.50;;;;;;;;;;5033325;28;20803;-91
2022/05/07 02:09:29;;;;;;;6.60;4.60;;;;;;;;;;5036778;28;20447;-91
2022/05/07 02:11:57;;;;;;;5.80;4.33;;;6.60;99.90;;;;;;5036607;28;20479;-91
2022/05/07 02:14:25;;;;;;;5.83;5.13;;;;;;;;;;5033440;28;20448;-91
2022/05/07 02:16:52;;;;;;;6.23;4.67;;;;;;;;;;5032231;28;20487;-91
2022/05/07 02:19:19;;;;;;;4.90;4.23;;;;;;;;;;5036297;28;20448;-90
2022/05/07 02:21:46;;;;;;;4.93;4.20;;;;;;;;;;5028350;28;20455;-90
2022/05/07 02:24:13;;;;;;;6.33;4.53;;;;;;;;;;5036456;28;20446;-90
2022/05/07 02:26:41;;;;;;;7.63;4.63;;;;;;;;;;5036444;28;20447;-89
2022/05/07 02:29:10;;;;;;;5.40;4.90;;;6.30;99.90;;;;;;5036628;28;20471;-91
2022/05/07 02:31:37;;;;;;;6.87;4.27;;;;;;;;;;5033315;28;20459;-91
2022/05/07 02:34:04;;;;;;;12.20;4.30;;;;;;;;;;5032015;28;20458;-91
2022/05/07 02:36:32;;;;;;;5.90;4.03;;;;;;;;;;5035853;28;20435;-91
2022/05/07 02:38:59;;;;;;;6.20;5.13;;;;;;;;;;5036225;28;20486;-92
2022/05/07 02:44:12;;;;;;;6.57;4.50;;;6.40;99.90;;;;;;5036372;28;20422;-90
2022/05/07 02:46:39;;;;;;;4.30;3.90;;;;;;;;;;5035730;28;20439;-93
2022/05/07 02:49:10;;;;;;;9.60;5.07;;;;;;;;;;5036817;28;20431;-91
2022/05/07 02:51:37;;;;;;;4.60;4.20;;;;;;;;;;5030573;28;20463;-91
2022/05/07 02:54:04;;;;;;;6.67;5.37;;;;;;;;;;5030675;28;20966;-89
2022/05/07 02:56:31;;;;;;;8.03;4.77;;;;;;;;;;5035573;28;20432;-92
2022/05/07 02:58:58;;;;;;;7.03;4.60;;;;;;;;;;5035781;28;20439;-91
2022/05/07 03:01:27;;;;;;;4.80;4.30;;;7.80;99.90;;;;;;5032454;28;20432;-89
2022/05/07 03:03:54;;;;;;;7.30;4.67;;;;;;;;;;5035767;28;20439;-91
2022/05/07 03:06:21;;;;;;;4.63;4.00;;;;;;;;;;5029790;28;20440;-89
2022/05/07 03:08:48;;;;;;;4.73;4.20;;;;;;;;;;5035386;28;20451;-91
2022/05/07 03:11:15;;;;;;;7.80;5.37;;;;;;;;;;5035370;28;20475;-91
2022/05/07 03:13:42;;;;;;;4.97;4.30;;;;;;;;;;5032518;28;20435;-90
2022/05/07 03:16:09;;;;;;;4.50;3.80;;;;;;;;;;5035466;28;20954;-92
2022/05/07 03:18:38;;;;;;;6.13;4.53;;;;;;;;;;5030857;28;20490;-92
2022/05/07 03:21:05;;;;;;;5.27;3.67;;;;;;;;;;5027772;28;20451;-91
2022/05/07 03:23:32;;;;;;;6.60;4.17;;;;;;;;;;5030382;28;20458;-92
2022/05/07 03:25:59;;;;;;;9.20;4.37;;;;;;;;;;5035162;28;20446;-90
2022/05/07 03:28:27;;;;;;;4.50;4.10;;;;;;;;;;5035354;28;20455;-90
2022/05/07 03:30:54;;;;;;;7.27;4.07;;;;;;;;;;5032315;28;20804;-90
2022/05/07 03:33:21;;;;;;;5.30;4.20;;;;;;;;;;5035163;28;20458;-91
2022/05/07 03:35:49;;;;;;;5.67;4.90;;;6.30;99.90;;;;;;5035023;28;20443;-89
2022/05/07 03:38:16;;;;;;;6.23;4.60;;;;;;;;;;5034141;28;20491;-90
2022/05/07 03:40:45;;;;;;;5.83;4.53;;;;;;;;;;5034742;28;20446;-90
2022/05/07 03:43:12;;;;;;;9.03;4.67;;;;;;;;;;5030703;28;20571;-91
2022/05/07 03:45:39;;;;;;;4.57;4.07;;;;;;;;;;5031828;28;20454;-89
2022/05/07 03:48:06;;;;;;;4.80;4.40;;;;;;;;;;5034909;28;20509;-91
2022/05/07 03:50:33;;;;;;;4.77;4.17;;;;;;;;;;5034594;28;20474;-91
2022/05/07 03:55:47;;;;;;;6.50;4.07;;;;;;;;;;5034755;28;20501;-91
2022/05/07 03:58:15;;;;;;;5.53;4.57;;;;;;;;;;5034551;28;20495;-89
2022/05/07 04:00:43;;;;;;;7.00;4.30;;;;;;;;;;5034613;28;20447;-89
2022/05/07 04:03:10;;;;;;;6.27;4.80;;;;;;;;;;5032365;28;20534;-90
2022/05/07 04:05:38;;;;;;;4.73;4.33;;;;;;;;;;5034356;28;20447;-91
2022/05/07 04:08:07;;;;;;;7.37;4.43;;;6.10;99.90;;;;;;5030769;28;20978;-92
2022/05/07 04:10:34;;;;;;;5.90;4.10;;;;;;;;;;5034400;28;20448;-92
2022/05/07 04:13:02;;;;;;;7.57;5.20;;;;;;;;;;5032698;28;20493;-90
2022/05/07 04:15:29;;;;;;;4.80;4.30;;;;;;;;;;5037349;28;20447;-89
2022/05/07 04:17:56;;;;;;;4.83;4.23;;;;;;;;;;5032780;28;20471;-91
2022/05/07 04:20:23;;;;;;;5.90;3.97;;;;;;;;;;5032635;28;20450;-92
2022/05/07 04:22:50;;;;;;;4.67;3.83;;;;;;;;;;5033874;28;20451;-91
2022/05/07 04:25:18;;;;;;;5.73;4.57;;;6.20;99.90;;;;;;5029658;28;20454;-90
2022/05/07 04:27:46;;;;;;;5.37;4.03;;;;;;;;;;5034144;28;20451;-89
2022/05/07 04:30:13;;;;;;;5.50;4.63;;;6.30;99.90;;;;;;5034223;28;20423;-90
2022/05/07 04:32:41;;;;;;;4.80;3.93;;;;;;;;;;5029387;28;20908;-91
2022/05/07 04:35:08;;;;;;;5.53;4.50;;;;;;;;;;5030814;28;20447;-92
2022/05/07 04:37:35;;;;;;;6.20;5.20;;;;;;;;;;5033284;28;20483;-91
2022/05/07 04:40:03;;;;;;;5.67;4.63;;;;;;;;;;5047007;28;20442;-91
2022/05/07 04:42:31;;;;;;;12.93;5.50;;;6.70;99.90;;;;;;5047811;28;20927;-90
2022/05/07 04:44:58;;;;;;;7.50;5.00;;;;;;;;;;5050627;28;20806;-92
2022/05/07 04:47:25;;;;;;;5.23;4.27;;;;;;;;;;5054084;28;20427;-90
2022/05/07 04:49:52;;;;;;;7.53;5.00;;;;;;;;;;5051018;28;20435;-91
2022/05/07 04:52:19;;;;;;;5.73;4.80;;;;;;;;;;5053059;28;20439;-91
2022/05/07 04:54:47;;;;;;;7.50;5.33;;;;;;;;;;5050723;28;20469;-92
2022/05/07 04:57:14;;;;;;;5.53;4.70;;;;;;;;;;5053765;28;20435;-93
2022/05/07 04:59:42;;;;;;;5.30;4.70;;;7.20;99.90;;;;;;5048029;28;20447;-90
2022/05/07 05:02:10;;;;;;;4.87;4.20;;;;;;;;;;5050327;28;20435;-92
2022/05/07 05:04:37;;;;;;;7.37;5.20;;;;;;;;;;5047767;28;20942;-90
2022/05/07 05:07:04;;;;;;;7.23;5.07;;;;;;;;;;5047824;28;20427;-90
2022/05/07 05:09:31;;;;;;;6.03;5.43;;;;;;;;;;5054801;28;20445;-91
2022/05/07 05:11:58;;;;;;;4.93;4.33;;;;;;;;;;5057334;28;20470;-89
2022/05/07 05:17:11;;;;;;;5.27;4.80;;;8.20;99.90;;;;;;5055270;28;20780;-90
2022/05/07 05:19:38;;;;;;;6.87;5.23;;;;;;;;;;5052563;28;20486;-90
2022/05/07 05:22:05;;;;;;;5.30;4.73;;;;;;;;;;5053385;28;20446;-91
2022/05/07 05:24:33;;;;;;;6.90;5.20;;;;;;;;;;5057214;28;20445;-91
2022/05/07 05:27:00;;;;;;;6.27;5.53;;;;;;;;;;5053465;28;20466;-90
2022/05/07 05:29:27;;;;;;;6.30;5.50;;;;;;;;;;5057432;28;20443;-91
2022/05/07 05:32:00;;;;;;;19.60;6.33;;;9.70;99.90;;;;;;5057083;28;20943;-90
2022/05/07 05:34:28;;;;;;;10.53;6.30;;;10.40;99.90;;;;;;5052906;28;20430;-90
2022/05/07 05:36:56;;;;;;;8.10;5.80;;;;;;;;;;5052771;28;20458;-90
2022/05/07 05:39:25;;;;;;;8.37;5.63;;;11.40;99.90;;;;;;5053994;28;20555;-92
2022/05/07 05:41:52;;;;;;;8.73;5.33;;;;;;;;;;5051583;28;20462;-93
2022/05/07 05:44:19;;;;;;;13.87;5.83;;;;;;;;;;5057112;28;20435;-91
2022/05/07 05:46:46;;;;;;;9.70;4.83;;;;;;;;;;5057348;28;20446;-92
2022/05/07 05:49:13;;;;;;;10.97;4.80;;;;;;;;;;5054291;28;20458;-92
2022/05/07 05:51:41;;;;;;;7.90;5.47;;;14.30;99.90;;;;;;5052336;28;20447;-93
2022/05/07 05:54:09;;;;;;;5.57;4.77;;;;;;;;;;5054225;28;20446;-94
2022/05/07 05:56:36;;;;;;;5.20;4.70;;;;;;;;;;5057014;28;20451;-93
2022/05/07 05:59:03;;;;;;;9.30;5.17;;;;;;;;;;5054159;28;20481;-94
2022/05/07 06:01:30;;;;;;;8.50;5.50;;;;;;;;;;5057910;28;20462;-93
2022/05/07 06:03:57;;;;;;;5.43;4.93;;;;;;;;;;5057695;28;20439;-93
2022/05/07 06:06:24;;;;;;;5.70;5.17;;;;;;;;;;5052485;28;20462;-93
2022/05/07 06:08:53;;;;;;;5.73;4.90;;;;;;;;;;5057783;28;20466;-94
2022/05/07 06:11:20;;;;;;;6.40;5.33;;;;;;;;;;5054139;28;20489;-93
2022/05/07 06:13:47;;;;;;;8.73;5.17;;;;;;;;;;5057374;28;20438;-92
2022/05/07 06:16:17;;;;;;;5.53;5.03;;;;;;;;;;5058774;28;20446;-91
2022/05/07 06:18:44;;;;;;;7.27;6.50;;;;;;;;;;5054771;28;20538;-92
2022/05/07 06:21:11;;;;;;;6.10;5.60;;;;;;;;;;5056989;28;20454;-91
2022/05/07 06:23:38;;;;;;;5.50;5.00;;;;;;;;;;5056787;28;20450;-90
2022/05/07 06:28:52;;;;;;;6.07;5.00;;;;;;;;;;5056768;28;20464;-92
2022/05/07 06:31:19;;;;;;;6.00;5.43;;;;;;;;;;5056377;28;20446;-90
2022/05/07 06:33:47;;;;;;;7.70;4.70;;;;;;;;;;5056500;28;20974;-91
2022/05/07 06:36:14;;;;;;;6.80;5.10;;;;;;;;;;5059709;28;20457;-91
2022/05/07 06:38:41;;;;;;;6.47;5.50;;;;;;;;;;5050494;28;20490;-91
2022/05/07 06:41:10;;;;;;;5.83;5.30;;;17.60;99.40;;;;;;5052522;28;20848;-91
2022/05/07 06:43:37;;;;;;;5.90;5.00;;;;;;;;;;5055664;28;20491;-92
2022/05/07 06:46:04;;;;;;;11.00;5.50;;;17.50;98.90;;;;;;5061690;28;20458;-90
2022/05/07 06:48:32;;;;;;;5.33;4.53;;;;;;;;;;5066689;28;20450;-89
2022/05/07 06:50:59;;;;;;;6.27;5.40;;;;;;;;;;5061403;28;20805;-91
2022/05/07 06:53:26;;;;;;;6.93;5.13;;;;;;;;;;5056929;28;20454;-92
2022/05/07 06:55:58;;;;;;;8.07;5.07;;;;;;;;;;5054293;28;20442;-91
2022/05/07 06:58:29;;;;;;;5.30;4.80;;;16.80;97.80;;;;;;5053709;28;20481;-93
2022/05/07 07:00:57;;;;;;;5.60;5.10;;;;;;;;;;5056694;28;20448;-94
2022/05/07 07:03:24;;;;;;;5.47;4.97;;;;;;;;;;5052559;28;20473;-91
2022/05/07 07:05:52;;;;;;;6.10;5.17;;;;;;;;;;5056362;28;20477;-90
2022/05/07 07:08:20;;;;;;;5.30;4.80;;;;;;;;;;5055055;28;20475;-91
2022/05/07 07:10:47;;;;;;;7.03;6.00;;;;;;;;;;5056050;28;20469;-90
2022/05/07 07:13:17;;;;;;;6.30;4.93;;;17.40;98.50;;;;;;5055249;28;20451;-90
2022/05/07 07:15:45;;;;;;;6.20;4.97;;;;;;;;;;5050735;28;20462;-89
2022/05/07 07:18:13;;;;;;;5.27;4.87;;;;;;;;;;5054409;28;20461;-89
2022/05/07 07:20:40;;;;;;;7.10;4.73;;;;;;;;;;5054808;28;20450;-91
2022/05/07 07:23:11;;;;;;;7.47;4.87;;;;;;;;;;5053587;28;20461;-87
2022/05/07 07:25:39;;;;;;;5.47;4.90;;;;;;;;;;5054426;28;20515;-88
2022/05/07 07:28:06;;;;;;;10.20;5.80;;;;;;;;;;5053713;28;20541;-91
2022/05/07 07:30:33;;;;;;;7.23;6.03;;;;;;;;;;5056168;28;20455;-92
2022/05/07 07:33:02;;;;;;;10.90;6.93;;;18.90;95.50;;;;;;5056220;28;20477;-91
2022/05/07 07:35:29;;;;;;;6.80;6.20;;;;;;;;;;5056311;28;20453;-85
2022/05/07 07:37:56;;;;;;;6.37;5.77;;;;;;;;;;5060812;28;20443;-86
2022/05/07 07:40:23;;;;;;;7.17;6.50;;;;;;;;;;5061230;28;20479;-94
2022/05/07 07:42:51;;;;;;;8.00;7.20;;;;;;;;;;5060332;28;20450;-87
2022/05/07 07:48:05;;;;;;;8.03;7.20;;;;;;;;;;5073014;23;20438;-87
2022/05/07 07:50:35;;;;;;;8.10;7.50;;;20.10;93.70;;;;;;5028067;28;20457;-87
2022/05/07 07:53:03;;;;;;;10.70;9.53;;;20.20;92.60;;;;;;5027018;28;20436;-87
2022/05/07 07:55:31;;;;;;;9.50;8.70;;;19.80;93.10;;;;;;5027685;28;20452;-85
2022/05/07 07:57:59;;;;;;;9.50;8.60;;;19.70;93.60;;;;;;5019575;28;20452;-85
2022/05/07 08:00:27;;;;;;;10.37;8.93;;;19.90;94.20;;;;;;5016512;28;20484;-87
2022/05/07 08:02:55;;;;;;;10.50;9.50;;;20.10;94.00;;;;;;5013532;28;20453;-87
2022/05/07 08:05:25;;;;;;;9.80;8.70;;;19.90;93.90;;;;;;5006594;28;20457;-86
2022/05/07 08:13:22;;;;;;;9.80;8.80;;;;;;;;;;4997436;28;20987;-85
2022/05/07 08:15:49;;;;;;;11.33;9.00;;;;;;;;;;4993990;28;20446;-85
2022/05/07 08:18:16;;;;;;;9.70;8.90;;;;;;;;;;5002624;28;20437;-85
2022/05/07 08:20:45;;;;;;;14.60;10.13;;;21.10;92.60;;;;;;5003968;28;20456;-85
2022/05/07 08:23:12;;;;;;;9.77;8.87;;;;;;;;;;4998229;28;20479;-87
2022/05/07 08:25:39;;;;;;;11.60;10.50;;;;;;;;;;4998442;28;20476;-83
2022/05/07 08:28:06;;;;;;;10.63;9.63;;;;;;;;;;4997745;28;20453;-86
2022/05/07 08:30:36;;;;;;;10.60;9.70;;;;;;;;;;4995820;28;20941;-86
2022/05/07 08:33:03;;;;;;;11.03;10.03;;;;;;;;;;4995702;28;20457;-90
2022/05/07 08:35:31;;;;;;;10.33;9.30;;;;;;;;;;4991381;28;20453;-85
2022/05/07 08:37:59;;;;;;;11.40;10.40;;;22.30;90.40;;;;;;4999347;28;20938;-85
2022/05/07 08:40:27;;;;;;;11.13;10.13;;;22.30;90.00;;;;;;5000342;28;20500;-84
2022/05/07 08:42:54;;;;;;;10.30;9.50;;;;;;;;;;4995223;28;20453;-88
2022/05/07 08:45:22;;;;;;;11.63;9.70;;;;;;;;;;4978087;28;20454;-89
2022/05/07 08:47:53;;;;;;;10.63;9.63;;;;;;;;;;4975894;28;20453;-89
2022/05/07 08:50:22;;;;;;;12.87;10.87;;;22.20;90.00;;;;;;4977781;28;20482;-90
2022/05/07 08:52:50;;;;;;;12.27;10.87;;;;;;;;;;4975297;28;20452;-93
2022/05/07 08:55:19;;;;;;;11.00;10.00;;;23.10;85.40;;;;;;4979993;28;20442;-92
2022/05/07 08:57:48;;;;;;;11.10;9.97;;;22.30;86.30;;;;;;4977412;28;20843;-90
2022/05/07 09:00:18;;;;;;;11.43;10.37;;;22.80;87.70;;;;;;4979414;28;20508;-91
2022/05/07 09:02:48;;;;;;;12.03;10.30;;;23.00;87.80;;;;;;4979743;28;20470;-92
2022/05/07 09:05:18;;;;;;;11.80;10.70;;;23.20;87.70;;;;;;4979806;28;20454;-92
2022/05/07 09:07:53;;;;;;;11.87;10.77;;;22.10;85.40;;;;;;4977531;28;20454;-93
2022/05/07 09:10:21;;;;;;;12.60;11.40;;;21.30;88.80;;;;;;4976042;28;20461;-92
2022/05/07 09:12:48;;;;;;;10.73;8.63;;;;;;;;;;4979345;28;20449;-91
2022/05/07 09:15:16;;;;;;;10.60;9.63;;;;;;;;;;4980069;28;20442;-91
2022/05/07 09:17:47;;;;;;;8.93;8.07;;;23.20;82.00;;;;;;4980604;28;20950;-92
2022/05/07 09:20:16;;;;;;;10.30;9.33;;;22.60;86.60;;;;;;4974998;28;20485;-91
2022/05/07 09:22:54;;;;;;;10.23;9.30;;;23.10;85.50;;;;;;4978145;28;20462;-92
2022/05/07 09:25:24;;;;;;;7.93;7.07;;;22.60;80.10;;;;;;4979983;28;20445;-90
2022/05/07 09:27:54;;;;;;;5.80;5.30;;;22.70;84.00;;;;;;4980305;28;20461;-91
2022/05/07 09:30:25;;;;;;;6.07;5.57;;;23.50;98.70;;;;;;4977605;28;20931;-92
2022/05/07 09:32:53;;;;;;;5.10;4.60;;;23.70;79.90;;;;;;4974795;28;20446;-92
2022/05/07 09:38:06;;;;;;;5.63;4.97;;;23.30;73.90;;;;;;4970340;28;20442;-91
2022/05/07 09:40:38;;;;;;;5.97;5.23;;;24.10;77.90;;;;;;4973251;28;20478;-91
2022/05/07 09:43:06;;;;;;;7.67;6.93;;;;;;;;;;4971860;28;20446;-91
2022/05/07 09:45:34;;;;;;;6.50;5.90;;;;;;;;;;4976414;28;20463;-90
2022/05/07 09:48:01;;;;;;;6.10;5.50;;;;;;;;;;4979402;28;21014;-91
2022/05/07 09:59:02;;;;;;;6.47;5.57;;;23.20;71.50;;;;;;4978642;28;20573;-90
2022/05/07 10:01:37;;;;;;;4.13;3.40;;;23.70;71.10;;;;;;4977112;28;20486;-88
2022/05/07 10:04:24;;;;;;;3.50;3.03;;;23.80;66.10;;;;;;4977504;28;20450;-86
2022/05/07 10:07:11;;;;;;;4.03;3.47;;;24.20;67.40;;;;;;4975988;28;20459;-88
2022/05/07 10:09:47;;;;;;;4.93;4.47;;;24.70;68.20;;;;;;4976994;28;20454;-91
2022/05/07 10:12:21;;;;;;;2.70;2.50;;;25.20;66.90;;;;;;4977077;28;20472;-89
2022/05/07 10:14:48;;;;;;;3.00;2.47;;;;;;;;;;4978622;28;20452;-85
2022/05/07 10:17:16;;;;;;;4.87;3.17;;;23.80;59.10;;;;;;4995144;28;20797;-91
2022/05/07 10:19:44;;;;;;;5.30;4.00;;;22.60;63.30;;;;;;4996170;28;20496;-90
2022/05/07 10:22:21;;;;;;;3.20;2.80;;;22.80;91.80;;;;;;4995555;28;20469;-91
2022/05/07 10:24:48;;;;;;;4.27;2.63;;;;;;;;;;4995798;28;20516;-84
2022/05/07 10:27:26;;;;;;;2.27;2.07;;;24.50;95.90;;;;;;4995523;28;20472;-90
2022/05/07 10:30:04;;;;;;;2.90;2.17;;;23.80;66.30;;;;;;4996491;28;20452;-87
2022/05/07 10:32:56;;;;;;;4.23;3.00;;;24.50;63.70;;;;;;4996201;28;20441;-91
2022/05/07 10:35:39;;;;;;;3.10;2.80;;;24.40;96.80;;;;;;4996233;28;20865;-88
2022/05/07 10:38:06;;;;;;;4.10;2.53;;;;;;;;;;4995841;28;20504;-88
2022/05/07 10:40:33;;;;;;;5.50;3.47;;;;;;;;;;4992997;28;20547;-88
2022/05/07 10:43:03;;;;;;;4.77;3.10;;;23.80;58.20;;;;;;4996029;28;21000;-88
2022/05/07 10:45:40;;;;;;;4.43;2.50;;;23.60;86.80;;;;;;4996199;28;20457;-90
2022/05/07 10:48:18;;;;;;;3.80;2.60;;;24.10;60.00;;;;;;4996077;28;20453;-91
2022/05/07 10:50:51;;;;;;;3.17;2.67;;;24.90;61.90;;;;;;4996284;28;20820;-88
2022/05/07 10:53:19;;;;;;;3.20;2.63;;;;;;;;;;4994110;28;20449;-90
2022/05/07 10:55:46;;;;;;;3.20;2.40;;;;;;;;;;4992077;28;20445;-90
2022/05/07 10:58:14;;;;;;;6.97;3.10;;;24.70;87.40;;;;;;4991865;28;20456;-90
2022/05/07 11:00:41;;;;;;;3.30;2.70;;;;;;;;;;4995453;28;20608;-86
2022/05/07 11:03:11;;;;;;;3.77;3.43;;;;;;;;;;4995136;28;20449;-91
2022/05/07 11:05:39;;;;;;;4.00;2.87;;;;;;;;;;4995508;28;20844;-88
2022/05/07 11:08:06;;;;;;;4.60;2.70;;;22.60;94.60;;;;;;4994562;28;20762;-91
2022/05/07 11:10:33;;;;;;;3.37;3.07;;;;;;;;;;4995417;28;20798;-87
2022/05/07 11:13:07;;;;;;;5.07;3.40;;;24.20;91.20;;;;;;4991773;28;20454;-88
2022/05/07 11:15:35;;;;;;;4.67;3.03;;;24.20;85.80;;;;;;4994850;28;20469;-89
2022/05/07 11:18:13;;;;;;;4.20;3.70;;;23.80;57.50;;;;;;4995184;28;20453;-88
2022/05/07 11:20:41;;;;;;;8.10;3.73;;;;;;;;;;4996015;28;20524;-86
2022/05/07 11:23:13;;;;;;;3.30;3.00;;;24.30;63.10;;;;;;4994361;28;20534;-93
2022/05/07 11:25:45;;;;;;;3.67;3.10;;;;;;;;;;4995590;28;20453;-90
2022/05/07 11:28:12;;;;;;;3.53;3.23;;;;;;;;;;4995269;28;20922;-92
2022/05/07 11:30:50;;;;;;;3.30;3.03;;;24.40;91.70;;;;;;4995101;28;20926;-88
2022/05/07 11:33:24;;;;;;;4.73;3.47;;;24.30;87.00;;;;;;4995143;28;20445;-89
2022/05/07 11:36:01;;;;;;;10.77;3.70;;;23.80;86.00;;;;;;4995222;28;20457;-87
2022/05/07 11:38:28;;;;;;;4.77;3.07;;;;;;;;;;4990690;28;20484;-89
2022/05/07 11:40:55;;;;;;;3.50;2.80;;;;;;;;;;4991899;28;20493;-89
2022/05/07 11:46:08;;;;;;;3.60;3.30;;;21.90;95.30;;;;;;4994995;28;20501;-89
2022/05/07 11:48:35;;;;;;;4.23;3.77;;;;;;;;;;4994294;28;20545;-90
2022/05/07 11:51:02;;;;;;;4.13;3.80;;;;;;;;;;4995023;28;20449;-86
2022/05/07 11:53:31;;;;;;;3.60;3.23;;;21.50;68.80;;;;;;4993215;28;20441;-89
2022/05/07 11:56:09;;;;;;;4.23;2.83;;;21.80;92.50;;;;;;4995400;28;20532;-91
2022/05/07 11:58:40;;;;;;;4.77;4.13;;;20.80;91.20;;;;;;4996290;28;20453;-92
2022/05/07 12:01:18;;;;;;;3.00;2.70;;;20.90;89.30;;;;;;4995984;28;20551;-90
2022/05/07 12:03:47;;;;;;;8.20;3.07;;;;;;;;;;4994729;28;20540;-88
2022/05/07 12:06:24;;;;;;;3.17;2.87;;;20.20;70.50;;;;;;4994504;28;20456;-88
2022/05/07 12:08:52;;;;;;;3.77;3.17;;;;;;;;;;4996755;28;20444;-91
2022/05/07 12:11:20;;;;;;;4.50;2.77;;;;;;;;;;4996950;28;20449;-90
2022/05/07 12:13:47;;;;;;;3.83;2.70;;;21.50;66.00;;;;;;4994691;28;20445;-88
2022/05/07 12:19:02;;;;;;;6.93;2.53;;;;;;;;;;4994508;28;20448;-91
2022/05/07 12:29:52;;;;;;;5.00;2.83;;;24.70;92.20;;;;;;4994421;28;20440;-87
2022/05/07 12:32:21;;;;;;;5.13;2.87;;;24.80;83.80;;;;;;4993631;28;21093;-89
2022/05/07 12:34:49;;;;;;;3.10;2.80;;;24.40;58.80;;;;;;4993895;28;20459;-90
2022/05/07 12:37:16;;;;;;;3.30;2.50;;;;;;;;;;4988676;28;20461;-88
2022/05/07 12:39:43;;;;;;;2.53;2.33;;;;;;;;;;4994534;28;20489;-89
2022/05/07 12:42:12;;;;;;;4.10;2.50;;;24.80;90.90;;;;;;4994236;28;20457;-91
2022/05/07 12:44:42;;;;;;;2.97;2.67;;;24.20;61.30;;;;;;4995424;28;20449;-88
2022/05/07 12:47:10;;;;;;;3.17;2.37;;;;;;;;;;4996024;28;20434;-89
2022/05/07 12:49:38;;;;;;;2.67;2.47;;;23.90;65.20;;;;;;4994891;28;20481;-89
2022/05/07 12:52:06;;;;;;;2.70;2.50;;;23.70;90.00;;;;;;4990043;28;20452;-91
2022/05/07 12:54:33;;;;;;;4.00;2.77;;;;;;;;;;4993978;28;21089;-90
2022/05/07 12:57:00;;;;;;;7.33;3.63;;;;;;;;;;4994258;28;20453;-92
2022/05/07 12:59:27;;;;;;;3.80;3.10;;;;;;;;;;5002785;28;20534;-93
2022/05/07 13:01:54;;;;;;;3.10;2.60;;;;;;;;;;5000106;28;20492;-95
2022/05/07 13:04:24;;;;;;;3.93;2.80;;;;;;;;;;4994992;28;20945;-92
2022/05/07 13:06:53;;;;;;;3.53;2.60;;;;;;;;;;4992259;28;20812;-93
2022/05/07 13:09:20;;;;;;;6.40;2.80;;;;;;;;;;4997825;28;20453;-92
2022/05/07 13:11:48;;;;;;;3.50;2.30;;;;;;;;;;4995793;28;20457;-93
2022/05/07 13:14:16;;;;;;;3.70;2.90;;;;;;;;;;4997505;28;20850;-94
2022/05/07 13:16:43;;;;;;;2.87;2.57;;;;;;;;;;4994342;28;20492;-95
2022/05/07 13:19:10;;;;;;;3.53;2.60;;;;;;;;;;4999870;28;20437;-95
2022/05/07 13:21:38;;;;;;;2.43;2.23;;;;;;;;;;4994007;28;20488;-93
2022/05/07 13:24:09;;;;;;;3.67;2.60;;;;;;;;;;4991476;28;20445;-93
2022/05/07 13:26:36;;;;;;;8.80;2.77;;;;;;;;;;4994071;28;20445;-93
2022/05/07 13:29:04;;;;;;;2.93;2.60;;;;;;;;;;4999480;28;20457;-93
2022/05/07 13:31:32;;;;;;;2.87;2.53;;;;;;;;;;4999190;28;20465;-95
2022/05/07 13:33:59;;;;;;;3.33;2.53;;;;;;;;;;4999560;28;20449;-94
2022/05/07 13:36:26;;;;;;;3.00;2.40;;;;;;;;;;4999557;28;20468;-93
2022/05/07 13:38:54;;;;;;;4.60;2.57;;;;;;;;;;4997824;28;20449;-93
2022/05/07 13:41:23;;;;;;;4.63;2.43;;;;;;;;;;5002192;28;20882;-94
2022/05/07 13:43:50;;;;;;;3.63;2.63;;;22.60;58.80;;;;;;5002785;28;20466;-92
2022/05/07 13:46:17;;;;;;;2.47;2.17;;;;;;;;;;5001506;28;20465;-92
2022/05/07 13:48:45;;;;;;;4.10;2.83;;;;;;;;;;4995373;28;20480;-95
2022/05/07 13:51:12;;;;;;;2.90;2.30;;;;;;;;;;4998334;28;20536;-93
2022/05/07 13:53:39;;;;;;;3.20;2.13;;;;;;;;;;4994477;28;20480;-93
2022/05/07 13:56:06;;;;;;;4.03;2.30;;;;;;;;;;4998671;28;20433;-95
2022/05/07 13:58:35;;;;;;;4.93;2.53;;;;;;;;;;4995440;28;20460;-95
2022/05/07 14:01:02;;;;;;;4.70;2.50;;;;;;;;;;4998716;28;20481;-93
2022/05/07 14:03:29;;;;;;;4.03;2.40;;;;;;;;;;4999293;28;20453;-93
2022/05/07 14:05:57;;;;;;;2.57;2.20;;;;;;;;;;4997783;28;20464;-94
2022/05/07 14:08:24;;;;;;;2.40;2.20;;;;;;;;;;4998149;28;20437;-94
2022/05/07 14:10:51;;;;;;;2.40;2.20;;;;;;;;;;4998413;28;20449;-93
2022/05/07 14:13:18;;;;;;;6.97;2.03;;;;;;;;;;4998086;28;20881;-93
2022/05/07 14:15:47;;;;;;;3.97;2.27;;;24.50;57.60;;;;;;4998311;28;20473;-95
2022/05/07 14:18:14;;;;;;;3.17;2.63;;;;;;;;;;4992848;28;20509;-94
2022/05/07 14:20:41;;;;;;;4.63;2.57;;;;;;;;;;4994161;28;20484;-94
2022/05/07 14:23:12;;;;;;;4.80;2.27;;;;;;;;;;5001439;28;20619;-94
2022/05/07 14:25:39;;;;;;;2.30;2.10;;;;;;;;;;4997804;28;20467;-93
2022/05/07 14:28:06;;;;;;;5.03;2.10;;;;;;;;;;4994729;28;20528;-93
2022/05/07 14:30:34;;;;;;;2.83;2.17;;;;;;;;;;4997518;28;20449;-93
2022/05/07 14:33:02;;;;;;;3.17;2.40;;;23.80;58.70;;;;;;4997657;28;20831;-93
2022/05/07 14:35:30;;;;;;;3.30;2.30;;;;;;;;;;4997763;28;20442;-95
2022/05/07 14:37:57;;;;;;;4.10;2.47;;;;;;;;;;4992507;28;20517;-93
2022/05/07 14:40:31;;;;;;;2.67;2.47;;;;;;;;;;4997466;28;20456;-95
2022/05/07 14:43:00;;;;;;;2.87;2.10;;;22.40;92.60;;;;;;4997001;28;20449;-93
2022/05/07 14:45:27;;;;;;;3.80;2.73;;;;;;;;;;4992273;28;20496;-94
2022/05/07 14:47:55;;;;;;;6.40;3.10;;;;;;;;;;4998237;28;20469;-93
2022/05/07 14:50:23;;;;;;;5.27;2.23;;;;;;;;;;4996688;28;20493;-95
2022/05/07 14:52:51;;;;;;;2.47;2.27;;;;;;;;;;4995573;28;20453;-95
2022/05/07 14:55:18;;;;;;;5.00;2.53;;;;;;;;;;4990524;28;20457;-94
2022/05/07 14:57:45;;;;;;;4.43;2.53;;;;;;;;;;4993800;28;20464;-94